sensor_id;sensor_type;location;lat;lon;timestamp;P1;durP1;ratioP1;P2;durP2;ratioP2
22826;SDS011;11580;52.562;13.418;2022-11-15T00:01:52;25.03;;;22.23;;
22826;SDS011;11580;52.562;13.418;2022-11-15T00:04:38;25.50;;;22.70;;
22826;SDS011;11580;52.562;13.418;2022-11-15T00:07:23;24.27;;;21.83;;
22826;SDS011;11580;52.562;13.418;2022-11-15T00:10:10;24.63;;;21.87;;
22826;SDS011;11580;52.562;13.418;2022-11-15T00:12:56;25.83;;;22.20;;
22826;SDS011;11580;52.562;13.418;2022-11-15T00:15:41;24.80;;;22.20;;
22826;SDS011;11580;52.562;13.418;2022-11-15T00:18:27;26.83;;;22.53;;
22826;SDS011;11580;52.562;13.418;2022-11-15T00:21:14;24.93;;;22.43;;
22826;SDS011;11580;52.562;13.418;2022-11-15T00:24:01;25.97;;;23.10;;
22826;SDS011;11580;52.562;13.418;2022-11-15T00:26:49;25.33;;;22.23;;
22826;SDS011;11580;52.562;13.418;2022-11-15T00:29:34;24.93;;;22.27;;
22826;SDS011;11580;52.562;13.418;2022-11-15T00:32:22;25.67;;;22.97;;
22826;SDS011;11580;52.562;13.418;2022-11-15T00:35:08;27.07;;;22.70;;
22826;SDS011;11580;52.562;13.418;2022-11-15T00:37:54;26.30;;;22.83;;
22826;SDS011;11580;52.562;13.418;2022-11-15T00:40:39;25.43;;;22.73;;
22826;SDS011;11580;52.562;13.418;2022-11-15T00:43:27;25.80;;;23.10;;
22826;SDS011;11580;52.562;13.418;2022-11-15T00:46:13;25.90;;;22.30;;
22826;SDS011;11580;52.562;13.418;2022-11-15T00:48:58;25.00;;;22.40;;
22826;SDS011;11580;52.562;13.418;2022-11-15T00:51:44;25.87;;;23.07;;
22826;SDS011;11580;52.562;13.418;2022-11-15T00:54:29;24.23;;;21.73;;
22826;SDS011;11580;52.562;13.418;2022-11-15T00:57:15;25.07;;;22.13;;
22826;SDS011;11580;52.562;13.418;2022-11-15T01:00:02;25.07;;;22.40;;
22826;SDS011;11580;52.562;13.418;2022-11-15T01:02:49;24.93;;;22.23;;
22826;SDS011;11580;52.562;13.418;2022-11-15T01:05:36;28.93;;;23.00;;
22826;SDS011;11580;52.562;13.418;2022-11-15T01:08:22;26.10;;;21.90;;
22826;SDS011;11580;52.562;13.418;2022-11-15T01:11:10;26.53;;;23.20;;
22826;SDS011;11580;52.562;13.418;2022-11-15T01:13:56;25.77;;;22.67;;
22826;SDS011;11580;52.562;13.418;2022-11-15T01:16:43;26.40;;;22.73;;
22826;SDS011;11580;52.562;13.418;2022-11-15T01:19:29;25.70;;;21.97;;
22826;SDS011;11580;52.562;13.418;2022-11-15T01:22:15;26.80;;;23.93;;
22826;SDS011;11580;52.562;13.418;2022-11-15T01:25:01;25.17;;;22.57;;
22826;SDS011;11580;52.562;13.418;2022-11-15T01:27:47;25.37;;;22.67;;
22826;SDS011;11580;52.562;13.418;2022-11-15T01:30:33;23.90;;;21.10;;
22826;SDS011;11580;52.562;13.418;2022-11-15T01:33:21;25.90;;;23.10;;
22826;SDS011;11580;52.562;13.418;2022-11-15T01:36:08;23.93;;;21.37;;
22826;SDS011;11580;52.562;13.418;2022-11-15T01:38:57;27.27;;;24.37;;
22826;SDS011;11580;52.562;13.418;2022-11-15T01:41:43;24.93;;;22.30;;
22826;SDS011;11580;52.562;13.418;2022-11-15T01:44:31;26.00;;;23.20;;
22826;SDS011;11580;52.562;13.418;2022-11-15T01:47:29;24.67;;;21.27;;
22826;SDS011;11580;52.562;13.418;2022-11-15T01:50:23;25.57;;;22.00;;
22826;SDS011;11580;52.562;13.418;2022-11-15T01:53:15;23.83;;;21.33;;
22826;SDS011;11580;52.562;13.418;2022-11-15T01:56:04;24.93;;;22.30;;
22826;SDS011;11580;52.562;13.418;2022-11-15T01:58:55;24.60;;;21.93;;
22826;SDS011;11580;52.562;13.418;2022-11-15T02:01:46;25.13;;;22.33;;
22826;SDS011;11580;52.562;13.418;2022-11-15T02:04:32;25.90;;;21.10;;
22826;SDS011;11580;52.562;13.418;2022-11-15T02:07:24;24.10;;;21.50;;
22826;SDS011;11580;52.562;13.418;2022-11-15T02:10:12;26.10;;;23.03;;
22826;SDS011;11580;52.562;13.418;2022-11-15T02:13:03;26.00;;;23.20;;
22826;SDS011;11580;52.562;13.418;2022-11-15T02:15:51;25.17;;;22.50;;
22826;SDS011;11580;52.562;13.418;2022-11-15T02:18:55;26.57;;;23.77;;
22826;SDS011;11580;52.562;13.418;2022-11-15T02:21:55;24.73;;;22.07;;
22826;SDS011;11580;52.562;13.418;2022-11-15T02:25:11;25.60;;;22.43;;
22826;SDS011;11580;52.562;13.418;2022-11-15T02:28:27;24.53;;;21.77;;
22826;SDS011;11580;52.562;13.418;2022-11-15T02:31:35;25.80;;;22.37;;
22826;SDS011;11580;52.562;13.418;2022-11-15T02:34:32;24.30;;;21.70;;
22826;SDS011;11580;52.562;13.418;2022-11-15T02:37:32;27.47;;;23.13;;
22826;SDS011;11580;52.562;13.418;2022-11-15T02:40:27;28.20;;;23.40;;
22826;SDS011;11580;52.562;13.418;2022-11-15T02:43:25;22.93;;;20.17;;
22826;SDS011;11580;52.562;13.418;2022-11-15T02:46:40;23.50;;;20.77;;
22826;SDS011;11580;52.562;13.418;2022-11-15T02:49:50;24.63;;;22.00;;
22826;SDS011;11580;52.562;13.418;2022-11-15T02:52:39;25.63;;;22.93;;
22826;SDS011;11580;52.562;13.418;2022-11-15T02:55:26;24.60;;;21.87;;
22826;SDS011;11580;52.562;13.418;2022-11-15T02:58:28;24.67;;;22.07;;
22826;SDS011;11580;52.562;13.418;2022-11-15T03:02:04;24.57;;;22.03;;
22826;SDS011;11580;52.562;13.418;2022-11-15T03:05:08;25.33;;;21.53;;
22826;SDS011;11580;52.562;13.418;2022-11-15T03:08:05;25.17;;;22.10;;
22826;SDS011;11580;52.562;13.418;2022-11-15T03:11:02;24.00;;;21.40;;
22826;SDS011;11580;52.562;13.418;2022-11-15T03:13:56;22.80;;;20.30;;
22826;SDS011;11580;52.562;13.418;2022-11-15T03:16:45;22.83;;;20.13;;
22826;SDS011;11580;52.562;13.418;2022-11-15T03:19:45;23.03;;;20.73;;
22826;SDS011;11580;52.562;13.418;2022-11-15T03:22:34;24.47;;;21.57;;
22826;SDS011;11580;52.562;13.418;2022-11-15T03:25:24;26.23;;;21.33;;
22826;SDS011;11580;52.562;13.418;2022-11-15T03:28:15;22.43;;;20.03;;
22826;SDS011;11580;52.562;13.418;2022-11-15T03:31:10;23.10;;;20.07;;
22826;SDS011;11580;52.562;13.418;2022-11-15T03:34:23;22.20;;;20.00;;
22826;SDS011;11580;52.562;13.418;2022-11-15T03:37:17;25.40;;;22.57;;
22826;SDS011;11580;52.562;13.418;2022-11-15T03:40:10;25.50;;;21.57;;
22826;SDS011;11580;52.562;13.418;2022-11-15T03:42:58;26.23;;;22.90;;
22826;SDS011;11580;52.562;13.418;2022-11-15T03:45:53;26.53;;;21.93;;
22826;SDS011;11580;52.562;13.418;2022-11-15T03:48:47;23.13;;;20.50;;
22826;SDS011;11580;52.562;13.418;2022-11-15T03:51:38;26.60;;;23.33;;
22826;SDS011;11580;52.562;13.418;2022-11-15T03:54:26;26.50;;;23.47;;
22826;SDS011;11580;52.562;13.418;2022-11-15T03:57:11;26.70;;;21.50;;
22826;SDS011;11580;52.562;13.418;2022-11-15T03:59:57;24.90;;;22.20;;
22826;SDS011;11580;52.562;13.418;2022-11-15T04:02:43;26.57;;;22.53;;
22826;SDS011;11580;52.562;13.418;2022-11-15T04:05:29;24.97;;;22.33;;
22826;SDS011;11580;52.562;13.418;2022-11-15T04:08:14;24.23;;;20.73;;
22826;SDS011;11580;52.562;13.418;2022-11-15T04:11:02;25.40;;;21.83;;
22826;SDS011;11580;52.562;13.418;2022-11-15T04:13:47;24.50;;;21.87;;
22826;SDS011;11580;52.562;13.418;2022-11-15T04:16:33;25.10;;;22.47;;
22826;SDS011;11580;52.562;13.418;2022-11-15T04:19:18;25.90;;;22.57;;
22826;SDS011;11580;52.562;13.418;2022-11-15T04:22:36;25.67;;;22.57;;
22826;SDS011;11580;52.562;13.418;2022-11-15T04:25:39;28.07;;;24.50;;
22826;SDS011;11580;52.562;13.418;2022-11-15T04:28:27;25.93;;;23.27;;
22826;SDS011;11580;52.562;13.418;2022-11-15T04:31:13;24.90;;;21.57;;
22826;SDS011;11580;52.562;13.418;2022-11-15T04:33:59;24.87;;;22.20;;
22826;SDS011;11580;52.562;13.418;2022-11-15T04:36:45;25.60;;;22.23;;
22826;SDS011;11580;52.562;13.418;2022-11-15T04:39:48;24.67;;;21.47;;
22826;SDS011;11580;52.562;13.418;2022-11-15T04:42:34;23.93;;;21.50;;
22826;SDS011;11580;52.562;13.418;2022-11-15T04:45:21;24.20;;;21.70;;
22826;SDS011;11580;52.562;13.418;2022-11-15T04:48:06;24.13;;;21.53;;
22826;SDS011;11580;52.562;13.418;2022-11-15T04:50:52;23.93;;;21.37;;
22826;SDS011;11580;52.562;13.418;2022-11-15T04:53:38;27.20;;;22.77;;
22826;SDS011;11580;52.562;13.418;2022-11-15T04:56:23;25.53;;;22.17;;
22826;SDS011;11580;52.562;13.418;2022-11-15T04:59:08;25.70;;;22.27;;
22826;SDS011;11580;52.562;13.418;2022-11-15T05:01:56;22.77;;;19.80;;
22826;SDS011;11580;52.562;13.418;2022-11-15T05:04:41;26.07;;;23.27;;
22826;SDS011;11580;52.562;13.418;2022-11-15T05:07:26;26.10;;;21.53;;
22826;SDS011;11580;52.562;13.418;2022-11-15T05:10:12;23.27;;;20.87;;
22826;SDS011;11580;52.562;13.418;2022-11-15T05:12:58;22.33;;;20.03;;
22826;SDS011;11580;52.562;13.418;2022-11-15T05:15:44;23.87;;;20.37;;
22826;SDS011;11580;52.562;13.418;2022-11-15T05:18:32;24.70;;;21.53;;
22826;SDS011;11580;52.562;13.418;2022-11-15T05:21:18;26.00;;;22.50;;
22826;SDS011;11580;52.562;13.418;2022-11-15T05:24:04;25.73;;;22.80;;
22826;SDS011;11580;52.562;13.418;2022-11-15T05:26:50;23.93;;;21.47;;
22826;SDS011;11580;52.562;13.418;2022-11-15T05:29:36;25.90;;;22.33;;
22826;SDS011;11580;52.562;13.418;2022-11-15T05:32:21;24.03;;;21.53;;
22826;SDS011;11580;52.562;13.418;2022-11-15T05:35:12;24.23;;;20.10;;
22826;SDS011;11580;52.562;13.418;2022-11-15T05:38:04;24.57;;;21.63;;
22826;SDS011;11580;52.562;13.418;2022-11-15T05:40:50;22.70;;;20.30;;
22826;SDS011;11580;52.562;13.418;2022-11-15T05:43:36;22.57;;;20.13;;
22826;SDS011;11580;52.562;13.418;2022-11-15T05:46:25;23.37;;;20.83;;
22826;SDS011;11580;52.562;13.418;2022-11-15T05:49:11;23.67;;;21.17;;
22826;SDS011;11580;52.562;13.418;2022-11-15T05:52:03;25.03;;;22.33;;
22826;SDS011;11580;52.562;13.418;2022-11-15T05:54:52;26.93;;;22.20;;
22826;SDS011;11580;52.562;13.418;2022-11-15T05:57:40;23.63;;;20.00;;
22826;SDS011;11580;52.562;13.418;2022-11-15T06:00:26;25.07;;;22.17;;
22826;SDS011;11580;52.562;13.418;2022-11-15T06:03:12;24.60;;;21.73;;
22826;SDS011;11580;52.562;13.418;2022-11-15T06:05:58;24.20;;;21.73;;
22826;SDS011;11580;52.562;13.418;2022-11-15T06:08:45;25.20;;;22.17;;
22826;SDS011;11580;52.562;13.418;2022-11-15T06:11:31;25.53;;;22.27;;
22826;SDS011;11580;52.562;13.418;2022-11-15T06:14:16;24.90;;;22.30;;
22826;SDS011;11580;52.562;13.418;2022-11-15T06:17:02;24.17;;;21.67;;
22826;SDS011;11580;52.562;13.418;2022-11-15T06:19:48;28.47;;;23.07;;
22826;SDS011;11580;52.562;13.418;2022-11-15T06:22:33;25.10;;;22.47;;
22826;SDS011;11580;52.562;13.418;2022-11-15T06:25:20;26.43;;;20.70;;
22826;SDS011;11580;52.562;13.418;2022-11-15T06:28:06;24.67;;;21.80;;
22826;SDS011;11580;52.562;13.418;2022-11-15T06:30:52;26.00;;;23.30;;
22826;SDS011;11580;52.562;13.418;2022-11-15T06:33:38;24.73;;;22.20;;
22826;SDS011;11580;52.562;13.418;2022-11-15T06:36:24;24.47;;;21.77;;
22826;SDS011;11580;52.562;13.418;2022-11-15T06:39:10;25.10;;;21.13;;
22826;SDS011;11580;52.562;13.418;2022-11-15T06:41:57;25.73;;;22.37;;
22826;SDS011;11580;52.562;13.418;2022-11-15T06:44:43;28.13;;;21.70;;
22826;SDS011;11580;52.562;13.418;2022-11-15T06:47:29;22.13;;;19.80;;
22826;SDS011;11580;52.562;13.418;2022-11-15T06:50:14;22.17;;;19.77;;
22826;SDS011;11580;52.562;13.418;2022-11-15T06:53:01;27.23;;;21.90;;
22826;SDS011;11580;52.562;13.418;2022-11-15T06:55:47;24.43;;;21.67;;
22826;SDS011;11580;52.562;13.418;2022-11-15T06:58:35;24.73;;;22.23;;
22826;SDS011;11580;52.562;13.418;2022-11-15T07:01:20;24.20;;;21.60;;
22826;SDS011;11580;52.562;13.418;2022-11-15T07:04:06;24.73;;;21.77;;
22826;SDS011;11580;52.562;13.418;2022-11-15T07:06:52;23.93;;;20.60;;
22826;SDS011;11580;52.562;13.418;2022-11-15T07:09:37;24.80;;;21.57;;
22826;SDS011;11580;52.562;13.418;2022-11-15T07:12:23;23.60;;;21.10;;
22826;SDS011;11580;52.562;13.418;2022-11-15T07:15:10;23.90;;;21.40;;
22826;SDS011;11580;52.562;13.418;2022-11-15T07:17:56;25.67;;;21.10;;
22826;SDS011;11580;52.562;13.418;2022-11-15T07:20:46;24.03;;;21.43;;
22826;SDS011;11580;52.562;13.418;2022-11-15T07:23:31;28.00;;;22.83;;
22826;SDS011;11580;52.562;13.418;2022-11-15T07:26:18;25.13;;;21.67;;
22826;SDS011;11580;52.562;13.418;2022-11-15T07:29:03;25.33;;;22.07;;
22826;SDS011;11580;52.562;13.418;2022-11-15T07:31:51;22.67;;;20.30;;
22826;SDS011;11580;52.562;13.418;2022-11-15T07:34:36;23.90;;;21.33;;
22826;SDS011;11580;52.562;13.418;2022-11-15T07:37:22;22.80;;;20.27;;
22826;SDS011;11580;52.562;13.418;2022-11-15T07:40:08;23.93;;;21.57;;
22826;SDS011;11580;52.562;13.418;2022-11-15T07:42:58;24.67;;;22.07;;
22826;SDS011;11580;52.562;13.418;2022-11-15T07:45:45;24.97;;;22.30;;
22826;SDS011;11580;52.562;13.418;2022-11-15T07:48:32;26.00;;;23.27;;
22826;SDS011;11580;52.562;13.418;2022-11-15T07:51:18;22.53;;;20.30;;
22826;SDS011;11580;52.562;13.418;2022-11-15T07:54:03;21.90;;;19.70;;
22826;SDS011;11580;52.562;13.418;2022-11-15T07:56:49;22.83;;;20.43;;
22826;SDS011;11580;52.562;13.418;2022-11-15T07:59:34;22.43;;;20.00;;
22826;SDS011;11580;52.562;13.418;2022-11-15T08:02:20;22.40;;;20.00;;
22826;SDS011;11580;52.562;13.418;2022-11-15T08:05:07;22.87;;;20.43;;
22826;SDS011;11580;52.562;13.418;2022-11-15T08:07:54;22.97;;;20.07;;
22826;SDS011;11580;52.562;13.418;2022-11-15T08:10:40;23.70;;;21.27;;
22826;SDS011;11580;52.562;13.418;2022-11-15T08:13:26;24.50;;;22.10;;
22826;SDS011;11580;52.562;13.418;2022-11-15T08:16:12;23.10;;;20.47;;
22826;SDS011;11580;52.562;13.418;2022-11-15T08:18:58;24.13;;;21.53;;
22826;SDS011;11580;52.562;13.418;2022-11-15T08:21:45;23.17;;;20.87;;
22826;SDS011;11580;52.562;13.418;2022-11-15T08:24:30;22.23;;;20.03;;
22826;SDS011;11580;52.562;13.418;2022-11-15T08:27:16;22.53;;;20.13;;
22826;SDS011;11580;52.562;13.418;2022-11-15T08:30:01;23.23;;;20.90;;
22826;SDS011;11580;52.562;13.418;2022-11-15T08:32:48;22.10;;;19.73;;
22826;SDS011;11580;52.562;13.418;2022-11-15T08:35:35;21.97;;;19.87;;
22826;SDS011;11580;52.562;13.418;2022-11-15T08:38:22;22.37;;;20.17;;
22826;SDS011;11580;52.562;13.418;2022-11-15T08:41:10;21.33;;;19.40;;
22826;SDS011;11580;52.562;13.418;2022-11-15T08:44:01;20.30;;;18.40;;
22826;SDS011;11580;52.562;13.418;2022-11-15T08:46:47;22.87;;;20.40;;
22826;SDS011;11580;52.562;13.418;2022-11-15T08:49:32;21.10;;;18.87;;
22826;SDS011;11580;52.562;13.418;2022-11-15T08:52:18;20.77;;;18.70;;
22826;SDS011;11580;52.562;13.418;2022-11-15T08:55:06;20.47;;;17.50;;
22826;SDS011;11580;52.562;13.418;2022-11-15T08:57:52;20.87;;;18.17;;
22826;SDS011;11580;52.562;13.418;2022-11-15T09:00:38;19.10;;;17.30;;
22826;SDS011;11580;52.562;13.418;2022-11-15T09:03:24;20.60;;;18.50;;
22826;SDS011;11580;52.562;13.418;2022-11-15T09:06:10;20.57;;;18.50;;
22826;SDS011;11580;52.562;13.418;2022-11-15T09:08:55;21.80;;;19.70;;
22826;SDS011;11580;52.562;13.418;2022-11-15T09:11:42;19.07;;;17.20;;
22826;SDS011;11580;52.562;13.418;2022-11-15T09:14:28;21.07;;;18.57;;
22826;SDS011;11580;52.562;13.418;2022-11-15T09:17:14;20.20;;;18.00;;
22826;SDS011;11580;52.562;13.418;2022-11-15T09:19:59;19.87;;;17.90;;
22826;SDS011;11580;52.562;13.418;2022-11-15T09:22:45;20.73;;;17.47;;
22826;SDS011;11580;52.562;13.418;2022-11-15T09:25:31;18.27;;;16.57;;
22826;SDS011;11580;52.562;13.418;2022-11-15T09:28:18;19.80;;;17.70;;
22826;SDS011;11580;52.562;13.418;2022-11-15T09:31:05;19.00;;;17.17;;
22826;SDS011;11580;52.562;13.418;2022-11-15T09:33:51;19.50;;;17.60;;
22826;SDS011;11580;52.562;13.418;2022-11-15T09:36:37;21.07;;;18.90;;
22826;SDS011;11580;52.562;13.418;2022-11-15T09:39:23;19.27;;;17.10;;
22826;SDS011;11580;52.562;13.418;2022-11-15T09:42:14;20.50;;;18.60;;
22826;SDS011;11580;52.562;13.418;2022-11-15T09:45:18;18.97;;;17.20;;
22826;SDS011;11580;52.562;13.418;2022-11-15T09:48:24;18.27;;;16.50;;
22826;SDS011;11580;52.562;13.418;2022-11-15T09:51:32;20.70;;;18.67;;
22826;SDS011;11580;52.562;13.418;2022-11-15T09:54:13;19.50;;;17.60;;
22826;SDS011;11580;52.562;13.418;2022-11-15T09:56:52;19.97;;;18.07;;
22826;SDS011;11580;52.562;13.418;2022-11-15T09:59:36;19.90;;;17.80;;
22826;SDS011;11580;52.562;13.418;2022-11-15T10:02:33;19.73;;;17.83;;
22826;SDS011;11580;52.562;13.418;2022-11-15T10:05:20;20.00;;;17.90;;
22826;SDS011;11580;52.562;13.418;2022-11-15T10:07:53;18.73;;;16.83;;
22826;SDS011;11580;52.562;13.418;2022-11-15T10:10:31;19.40;;;17.60;;
22826;SDS011;11580;52.562;13.418;2022-11-15T10:13:06;18.93;;;16.73;;
22826;SDS011;11580;52.562;13.418;2022-11-15T10:15:42;18.40;;;16.47;;
22826;SDS011;11580;52.562;13.418;2022-11-15T10:18:17;17.03;;;15.23;;
22826;SDS011;11580;52.562;13.418;2022-11-15T10:21:02;16.03;;;14.60;;
22826;SDS011;11580;52.562;13.418;2022-11-15T10:23:43;15.87;;;14.27;;
22826;SDS011;11580;52.562;13.418;2022-11-15T10:26:11;16.30;;;14.67;;
22826;SDS011;11580;52.562;13.418;2022-11-15T10:28:42;16.77;;;15.13;;
22826;SDS011;11580;52.562;13.418;2022-11-15T10:31:20;17.47;;;15.63;;
22826;SDS011;11580;52.562;13.418;2022-11-15T10:33:51;17.13;;;15.33;;
22826;SDS011;11580;52.562;13.418;2022-11-15T10:36:36;17.90;;;16.20;;
22826;SDS011;11580;52.562;13.418;2022-11-15T10:39:03;18.10;;;16.40;;
22826;SDS011;11580;52.562;13.418;2022-11-15T10:41:31;20.10;;;18.20;;
22826;SDS011;11580;52.562;13.418;2022-11-15T10:44:08;18.90;;;17.03;;
22826;SDS011;11580;52.562;13.418;2022-11-15T10:47:03;19.13;;;17.33;;
22826;SDS011;11580;52.562;13.418;2022-11-15T10:49:56;17.90;;;16.13;;
22826;SDS011;11580;52.562;13.418;2022-11-15T10:52:30;18.33;;;16.53;;
22826;SDS011;11580;52.562;13.418;2022-11-15T10:55:02;19.30;;;17.40;;
22826;SDS011;11580;52.562;13.418;2022-11-15T10:57:48;16.90;;;15.27;;
22826;SDS011;11580;52.562;13.418;2022-11-15T11:00:33;16.73;;;15.03;;
22826;SDS011;11580;52.562;13.418;2022-11-15T11:03:05;19.63;;;17.70;;
22826;SDS011;11580;52.562;13.418;2022-11-15T11:06:04;18.40;;;16.57;;
22826;SDS011;11580;52.562;13.418;2022-11-15T11:08:35;20.07;;;16.93;;
22826;SDS011;11580;52.562;13.418;2022-11-15T11:11:03;18.17;;;16.37;;
22826;SDS011;11580;52.562;13.418;2022-11-15T11:13:33;18.47;;;16.67;;
22826;SDS011;11580;52.562;13.418;2022-11-15T11:22:22;17.50;;;15.70;;
22826;SDS011;11580;52.562;13.418;2022-11-15T11:25:03;18.30;;;16.33;;
22826;SDS011;11580;52.562;13.418;2022-11-15T11:27:47;17.70;;;15.90;;
22826;SDS011;11580;52.562;13.418;2022-11-15T11:30:34;18.07;;;16.37;;
22826;SDS011;11580;52.562;13.418;2022-11-15T11:33:16;17.33;;;15.53;;
22826;SDS011;11580;52.562;13.418;2022-11-15T11:35:50;17.10;;;15.50;;
22826;SDS011;11580;52.562;13.418;2022-11-15T11:38:38;16.97;;;15.30;;
22826;SDS011;11580;52.562;13.418;2022-11-15T11:41:20;16.77;;;15.10;;
22826;SDS011;11580;52.562;13.418;2022-11-15T11:44:17;17.80;;;15.60;;
22826;SDS011;11580;52.562;13.418;2022-11-15T11:46:56;16.10;;;14.70;;
22826;SDS011;11580;52.562;13.418;2022-11-15T11:49:28;18.30;;;16.50;;
22826;SDS011;11580;52.562;13.418;2022-11-15T11:52:07;17.60;;;16.00;;
22826;SDS011;11580;52.562;13.418;2022-11-15T11:54:47;15.30;;;13.90;;
22826;SDS011;11580;52.562;13.418;2022-11-15T11:57:29;17.23;;;15.63;;
22826;SDS011;11580;52.562;13.418;2022-11-15T12:00:13;15.90;;;14.23;;
22826;SDS011;11580;52.562;13.418;2022-11-15T12:02:47;17.30;;;15.63;;
22826;SDS011;11580;52.562;13.418;2022-11-15T12:05:34;17.37;;;15.73;;
22826;SDS011;11580;52.562;13.418;2022-11-15T12:08:17;16.47;;;14.97;;
22826;SDS011;11580;52.562;13.418;2022-11-15T12:10:57;16.33;;;14.63;;
22826;SDS011;11580;52.562;13.418;2022-11-15T12:13:35;15.40;;;14.07;;
22826;SDS011;11580;52.562;13.418;2022-11-15T12:16:06;17.07;;;15.37;;
22826;SDS011;11580;52.562;13.418;2022-11-15T12:18:43;16.57;;;15.17;;
22826;SDS011;11580;52.562;13.418;2022-11-15T12:21:16;15.43;;;14.00;;
22826;SDS011;11580;52.562;13.418;2022-11-15T12:23:53;16.00;;;14.53;;
22826;SDS011;11580;52.562;13.418;2022-11-15T12:26:31;16.67;;;15.07;;
22826;SDS011;11580;52.562;13.418;2022-11-15T12:29:06;14.23;;;12.87;;
22826;SDS011;11580;52.562;13.418;2022-11-15T12:31:43;15.03;;;13.47;;
22826;SDS011;11580;52.562;13.418;2022-11-15T12:34:29;16.17;;;14.50;;
22826;SDS011;11580;52.562;13.418;2022-11-15T12:43:42;14.87;;;13.10;;
22826;SDS011;11580;52.562;13.418;2022-11-15T12:46:12;15.47;;;13.97;;
22826;SDS011;11580;52.562;13.418;2022-11-15T12:48:49;15.73;;;14.33;;
22826;SDS011;11580;52.562;13.418;2022-11-15T12:51:20;14.60;;;13.20;;
22826;SDS011;11580;52.562;13.418;2022-11-15T12:57:41;13.53;;;12.40;;
22826;SDS011;11580;52.562;13.418;2022-11-15T13:03:25;15.60;;;14.03;;
22826;SDS011;11580;52.562;13.418;2022-11-15T13:06:00;13.73;;;12.57;;
22826;SDS011;11580;52.562;13.418;2022-11-15T13:08:56;15.10;;;13.70;;
22826;SDS011;11580;52.562;13.418;2022-11-15T13:20:14;13.60;;;12.33;;
22826;SDS011;11580;52.562;13.418;2022-11-15T13:23:00;13.87;;;12.67;;
22826;SDS011;11580;52.562;13.418;2022-11-15T13:25:40;13.43;;;11.97;;
22826;SDS011;11580;52.562;13.418;2022-11-15T13:28:31;14.27;;;12.90;;
22826;SDS011;11580;52.562;13.418;2022-11-15T13:31:03;13.80;;;12.60;;
22826;SDS011;11580;52.562;13.418;2022-11-15T13:33:49;12.30;;;11.20;;
22826;SDS011;11580;52.562;13.418;2022-11-15T13:36:18;14.40;;;13.20;;
22826;SDS011;11580;52.562;13.418;2022-11-15T13:38:56;12.80;;;11.67;;
22826;SDS011;11580;52.562;13.418;2022-11-15T13:41:27;13.43;;;12.20;;
22826;SDS011;11580;52.562;13.418;2022-11-15T13:43:57;12.90;;;11.73;;
22826;SDS011;11580;52.562;13.418;2022-11-15T13:46:26;14.43;;;13.03;;
22826;SDS011;11580;52.562;13.418;2022-11-15T13:48:57;13.33;;;12.17;;
22826;SDS011;11580;52.562;13.418;2022-11-15T13:51:29;13.10;;;11.90;;
22826;SDS011;11580;52.562;13.418;2022-11-15T13:54:09;13.73;;;12.43;;
22826;SDS011;11580;52.562;13.418;2022-11-15T13:56:47;13.40;;;12.10;;
22826;SDS011;11580;52.562;13.418;2022-11-15T13:59:23;13.27;;;11.87;;
22826;SDS011;11580;52.562;13.418;2022-11-15T14:01:52;13.07;;;11.90;;
22826;SDS011;11580;52.562;13.418;2022-11-15T14:04:22;13.37;;;12.07;;
22826;SDS011;11580;52.562;13.418;2022-11-15T14:06:55;14.80;;;13.60;;
22826;SDS011;11580;52.562;13.418;2022-11-15T14:09:32;16.63;;;15.00;;
22826;SDS011;11580;52.562;13.418;2022-11-15T14:14:51;21.73;;;19.20;;
22826;SDS011;11580;52.562;13.418;2022-11-15T14:17:20;21.20;;;17.57;;
22826;SDS011;11580;52.562;13.418;2022-11-15T14:20:01;19.03;;;16.33;;
22826;SDS011;11580;52.562;13.418;2022-11-15T14:22:50;17.07;;;15.30;;
22826;SDS011;11580;52.562;13.418;2022-11-15T14:25:19;16.93;;;15.33;;
22826;SDS011;11580;52.562;13.418;2022-11-15T14:28:08;14.90;;;13.60;;
22826;SDS011;11580;52.562;13.418;2022-11-15T14:30:58;16.90;;;15.30;;
22826;SDS011;11580;52.562;13.418;2022-11-15T14:33:27;16.53;;;14.97;;
22826;SDS011;11580;52.562;13.418;2022-11-15T14:35:58;15.57;;;14.20;;
22826;SDS011;11580;52.562;13.418;2022-11-15T14:38:32;16.63;;;15.10;;
22826;SDS011;11580;52.562;13.418;2022-11-15T14:41:00;16.43;;;14.90;;
22826;SDS011;11580;52.562;13.418;2022-11-15T14:43:27;16.70;;;15.10;;
22826;SDS011;11580;52.562;13.418;2022-11-15T14:45:54;16.93;;;15.53;;
22826;SDS011;11580;52.562;13.418;2022-11-15T14:48:21;16.03;;;14.50;;
22826;SDS011;11580;52.562;13.418;2022-11-15T14:50:49;16.70;;;15.27;;
22826;SDS011;11580;52.562;13.418;2022-11-15T14:53:17;17.57;;;15.97;;
22826;SDS011;11580;52.562;13.418;2022-11-15T14:55:45;16.33;;;14.87;;
22826;SDS011;11580;52.562;13.418;2022-11-15T14:58:13;17.40;;;15.90;;
22826;SDS011;11580;52.562;13.418;2022-11-15T15:00:40;18.10;;;16.40;;
22826;SDS011;11580;52.562;13.418;2022-11-15T15:03:08;17.33;;;15.83;;
22826;SDS011;11580;52.562;13.418;2022-11-15T15:05:36;17.83;;;16.07;;
22826;SDS011;11580;52.562;13.418;2022-11-15T15:08:05;17.23;;;15.50;;
22826;SDS011;11580;52.562;13.418;2022-11-15T15:10:35;18.80;;;16.90;;
22826;SDS011;11580;52.562;13.418;2022-11-15T15:13:05;18.00;;;16.33;;
22826;SDS011;11580;52.562;13.418;2022-11-15T15:15:41;18.73;;;16.93;;
22826;SDS011;11580;52.562;13.418;2022-11-15T15:18:08;18.67;;;16.70;;
22826;SDS011;11580;52.562;13.418;2022-11-15T15:20:36;18.00;;;16.23;;
22826;SDS011;11580;52.562;13.418;2022-11-15T15:23:08;18.87;;;17.17;;
22826;SDS011;11580;52.562;13.418;2022-11-15T15:25:44;19.43;;;17.60;;
22826;SDS011;11580;52.562;13.418;2022-11-15T15:28:13;20.77;;;18.70;;
22826;SDS011;11580;52.562;13.418;2022-11-15T15:30:41;24.50;;;22.00;;
22826;SDS011;11580;52.562;13.418;2022-11-15T15:33:08;26.00;;;23.07;;
22826;SDS011;11580;52.562;13.418;2022-11-15T15:35:35;27.00;;;22.87;;
22826;SDS011;11580;52.562;13.418;2022-11-15T15:38:03;20.93;;;18.77;;
22826;SDS011;11580;52.562;13.418;2022-11-15T15:40:30;21.47;;;19.27;;
22826;SDS011;11580;52.562;13.418;2022-11-15T15:43:00;21.07;;;18.87;;
22826;SDS011;11580;52.562;13.418;2022-11-15T15:45:27;18.97;;;17.07;;
22826;SDS011;11580;52.562;13.418;2022-11-15T15:47:55;20.17;;;18.17;;
22826;SDS011;11580;52.562;13.418;2022-11-15T15:50:23;20.93;;;18.93;;
22826;SDS011;11580;52.562;13.418;2022-11-15T15:52:53;18.47;;;16.57;;
22826;SDS011;11580;52.562;13.418;2022-11-15T15:55:24;17.87;;;15.97;;
22826;SDS011;11580;52.562;13.418;2022-11-15T15:57:52;16.73;;;15.03;;
22826;SDS011;11580;52.562;13.418;2022-11-15T16:00:22;17.53;;;15.80;;
22826;SDS011;11580;52.562;13.418;2022-11-15T16:02:51;16.53;;;14.83;;
22826;SDS011;11580;52.562;13.418;2022-11-15T16:05:18;17.43;;;15.83;;
22826;SDS011;11580;52.562;13.418;2022-11-15T16:07:46;17.80;;;16.00;;
22826;SDS011;11580;52.562;13.418;2022-11-15T16:10:16;18.53;;;16.80;;
22826;SDS011;11580;52.562;13.418;2022-11-15T16:12:47;19.50;;;17.77;;
22826;SDS011;11580;52.562;13.418;2022-11-15T16:15:15;19.80;;;18.00;;